createdAt,value
2022-10-16T00:02:56.916Z,13.15
2022-10-16T00:06:58.833Z,13.24
2022-10-16T00:11:06.290Z,13.31
2022-10-16T00:15:08.763Z,13.39
2022-10-16T00:19:13.434Z,13.34
2022-10-16T00:23:16.349Z,13.31
2022-10-16T00:27:18.282Z,13.24
2022-10-16T00:31:22.408Z,13.31
2022-10-16T00:35:24.864Z,13.30
2022-10-16T00:39:26.946Z,13.25
2022-10-16T00:43:41.892Z,13.29
2022-10-16T00:47:48.269Z,13.25
2022-10-16T00:51:53.903Z,13.05
2022-10-16T00:55:56.293Z,12.91
2022-10-16T00:59:59.790Z,12.78
2022-10-16T01:04:01.878Z,12.85
2022-10-16T01:08:24.283Z,12.63
2022-10-16T01:12:45.436Z,12.68
2022-10-16T01:17:01.749Z,12.59
2022-10-16T01:21:14.252Z,12.57
2022-10-16T01:25:26.492Z,12.59
2022-10-16T01:29:38.897Z,12.56
2022-10-16T01:33:46.038Z,12.60
2022-10-16T01:37:53.331Z,12.44
2022-10-16T01:42:16.925Z,12.51
2022-10-16T01:46:22.306Z,12.46
2022-10-16T01:50:25.598Z,12.44
2022-10-16T01:54:30.106Z,12.41
2022-10-16T01:58:35.673Z,12.40
2022-10-16T02:02:41.198Z,12.34
2022-10-16T02:06:43.124Z,12.30
2022-10-16T02:10:45.407Z,12.14
2022-10-16T02:14:47.999Z,11.90
2022-10-16T02:18:52.548Z,11.78
2022-10-16T02:22:58.175Z,11.78
2022-10-16T02:27:35.497Z,11.86
2022-10-16T02:31:42.325Z,11.92
2022-10-16T02:35:48.017Z,11.91
2022-10-16T02:39:50.049Z,11.93
2022-10-16T02:43:52.192Z,11.89
2022-10-16T02:47:54.127Z,11.89
2022-10-16T02:51:56.362Z,11.85
2022-10-16T02:55:58.414Z,11.81
2022-10-16T03:00:00.621Z,11.79
2022-10-16T03:04:02.821Z,11.85
2022-10-16T03:08:04.971Z,11.85
2022-10-16T03:12:07.370Z,11.82
2022-10-16T03:16:09.403Z,11.79
2022-10-16T03:20:11.803Z,11.67
2022-10-16T03:24:13.865Z,11.64
2022-10-16T03:28:15.847Z,11.57
2022-10-16T03:32:18.141Z,11.55
2022-10-16T03:36:20.706Z,11.57
2022-10-16T03:40:22.694Z,11.32
2022-10-16T03:44:24.793Z,11.40
2022-10-16T03:48:26.912Z,11.46
2022-10-16T03:52:28.855Z,11.39
2022-10-16T03:56:31.136Z,11.40
2022-10-16T04:00:33.055Z,11.44
2022-10-16T04:04:36.050Z,11.44
2022-10-16T04:08:38.062Z,11.46
2022-10-16T04:12:40.034Z,11.37
2022-10-16T04:36:12.037Z,11.27
2022-10-16T04:40:14.645Z,11.25
2022-10-16T04:44:16.601Z,11.04
2022-10-16T04:48:19.347Z,11.15
2022-10-16T04:52:22.661Z,10.99
2022-10-16T04:56:25.373Z,10.76
2022-10-16T05:00:27.531Z,10.56
2022-10-16T05:04:29.875Z,10.50
2022-10-16T05:08:31.775Z,10.60
2022-10-16T05:12:34.133Z,10.57
2022-10-16T05:16:36.176Z,10.61
2022-10-16T05:20:38.522Z,10.71
2022-10-16T05:24:40.668Z,10.78
2022-10-16T05:28:42.773Z,10.84
2022-10-16T05:32:51.739Z,10.84
2022-10-16T05:36:54.096Z,10.89
2022-10-16T05:40:57.645Z,10.81
2022-10-16T05:45:00.519Z,10.80
2022-10-16T05:49:03.147Z,10.88
2022-10-16T05:53:05.688Z,11.00
2022-10-16T05:57:07.752Z,11.11
2022-10-16T06:01:15.773Z,11.19
2022-10-16T06:05:17.821Z,11.28
2022-10-16T06:09:19.866Z,11.30
2022-10-16T06:13:21.960Z,11.39
2022-10-16T06:17:24.247Z,11.45
2022-10-16T06:21:28.307Z,11.45
2022-10-16T06:25:32.084Z,11.51
2022-10-16T06:29:34.087Z,11.65
2022-10-16T06:33:36.831Z,11.78
2022-10-16T06:37:38.968Z,11.89
2022-10-16T06:41:41.095Z,12.03
2022-10-16T06:45:55.231Z,12.18
2022-10-16T06:49:57.321Z,12.29
2022-10-16T06:54:04.065Z,12.41
2022-10-16T06:58:07.077Z,12.53
2022-10-16T07:02:10.852Z,12.65
2022-10-16T07:06:18.923Z,12.75
2022-10-16T07:10:21.424Z,12.82
2022-10-16T07:14:24.623Z,12.95
2022-10-16T07:22:36.626Z,13.20
2022-10-16T07:26:40.358Z,13.31
2022-10-16T07:30:42.420Z,13.49
2022-10-16T07:34:44.566Z,13.62
2022-10-16T07:38:47.584Z,13.79
2022-10-16T07:42:49.761Z,13.98
2022-10-16T07:46:51.803Z,14.12
2022-10-16T07:50:53.768Z,14.28
2022-10-16T07:58:57.712Z,14.58
2022-10-16T08:03:03.025Z,14.74
2022-10-16T08:07:05.182Z,14.95
2022-10-16T08:11:07.191Z,15.11
2022-10-16T08:15:09.915Z,15.34
2022-10-16T08:19:11.887Z,15.57
2022-10-16T08:23:14.399Z,15.76
2022-10-16T08:27:16.617Z,15.93
2022-10-16T08:31:18.642Z,16.06
2022-10-16T08:35:20.802Z,16.19
2022-10-16T08:39:22.773Z,16.34
2022-10-16T08:43:31.768Z,16.51
2022-10-16T08:47:46.463Z,16.68
2022-10-16T08:51:50.491Z,16.85
2022-10-16T08:55:54.297Z,17.01
2022-10-16T09:00:01.475Z,17.22
2022-10-16T09:04:19.998Z,17.33
2022-10-16T09:08:40.526Z,17.49
2022-10-16T09:13:08.104Z,17.63
2022-10-16T09:17:51.590Z,17.80
2022-10-16T09:21:54.371Z,17.96
2022-10-16T09:25:59.400Z,18.10
2022-10-16T09:30:01.368Z,18.31
2022-10-16T09:34:07.934Z,18.55
2022-10-16T09:38:21.801Z,18.69
2022-10-16T09:42:37.593Z,18.76
2022-10-16T09:46:41.337Z,18.91
2022-10-16T09:50:43.360Z,19.05
2022-10-16T09:54:57.351Z,19.18
2022-10-16T09:59:11.482Z,19.36
2022-10-16T10:03:13.844Z,19.45
2022-10-16T10:07:29.591Z,19.43
2022-10-16T10:11:50.639Z,19.51
2022-10-16T10:15:54.465Z,19.62
2022-10-16T10:19:59.288Z,19.79
2022-10-16T10:24:01.575Z,19.87
2022-10-16T10:28:19.501Z,19.94
2022-10-16T10:32:45.184Z,20.09
2022-10-16T10:37:03.781Z,20.12
2022-10-16T10:41:18.243Z,20.23
2022-10-16T10:45:39.047Z,20.35
2022-10-16T10:49:48.933Z,20.61
2022-10-16T10:54:03.666Z,20.77
2022-10-16T10:58:11.582Z,20.78
2022-10-16T11:02:26.903Z,20.78
2022-10-16T11:06:47.797Z,20.81
2022-10-16T11:10:59.898Z,20.97
2022-10-16T11:15:20.826Z,21.04
2022-10-16T11:19:23.151Z,21.10
2022-10-16T11:23:30.446Z,21.20
2022-10-16T11:27:40.188Z,21.37
2022-10-16T11:31:57.749Z,21.41
2022-10-16T11:36:12.407Z,21.48
2022-10-16T11:40:29.275Z,21.55
2022-10-16T11:44:49.777Z,21.75
2022-10-16T11:49:26.610Z,21.81
2022-10-16T11:53:54.455Z,21.90
2022-10-16T11:58:04.008Z,22.08
2022-10-16T12:02:30.304Z,22.14
2022-10-16T12:06:53.978Z,22.25
2022-10-16T12:11:08.810Z,22.42
2022-10-16T12:15:54.163Z,22.47
2022-10-16T12:20:16.650Z,22.59
2022-10-16T12:24:38.051Z,22.54
2022-10-16T12:28:41.675Z,22.53
2022-10-16T12:32:47.942Z,22.56
2022-10-16T12:36:50.929Z,22.57
2022-10-16T12:41:13.380Z,22.77
2022-10-16T12:45:34.521Z,22.76
2022-10-16T12:49:50.719Z,22.87
2022-10-16T12:54:21.061Z,23.02
2022-10-16T12:58:47.375Z,23.01
2022-10-16T13:03:25.913Z,23.28
2022-10-16T13:07:54.236Z,23.50
2022-10-16T13:12:12.687Z,23.48
2022-10-16T13:16:17.762Z,23.36
2022-10-16T13:20:43.903Z,23.43
2022-10-16T13:25:14.999Z,23.49
2022-10-16T13:29:17.560Z,23.50
2022-10-16T13:33:38.555Z,23.53
2022-10-16T13:37:40.508Z,23.47
2022-10-16T13:41:42.626Z,23.49
2022-10-16T13:45:54.890Z,23.39
2022-10-16T13:50:31.816Z,23.28
2022-10-16T13:54:33.936Z,23.17
2022-10-16T13:58:37.012Z,23.19
2022-10-16T14:02:44.527Z,23.11
2022-10-16T14:06:56.715Z,23.00
2022-10-16T14:11:09.575Z,22.91
2022-10-16T14:15:21.235Z,22.86
2022-10-16T14:19:26.352Z,22.79
2022-10-16T14:23:46.455Z,22.64
2022-10-16T14:28:06.296Z,22.52
2022-10-16T14:32:24.754Z,22.46
2022-10-16T14:36:28.816Z,22.40
2022-10-16T14:40:35.128Z,22.34
2022-10-16T14:44:37.493Z,22.32
2022-10-16T14:48:43.614Z,22.25
2022-10-16T14:52:45.667Z,22.20
2022-10-16T14:56:50.713Z,22.11
2022-10-16T15:00:52.820Z,22.09
2022-10-16T15:04:55.499Z,21.97
2022-10-16T15:08:57.526Z,21.92
2022-10-16T15:12:59.767Z,21.77
2022-10-16T15:17:01.844Z,21.49
2022-10-16T15:21:04.016Z,21.36
2022-10-16T15:25:35.960Z,21.24
2022-10-16T15:29:37.883Z,21.08
2022-10-16T15:33:40.178Z,20.97
2022-10-16T15:37:42.511Z,20.86
2022-10-16T15:41:48.927Z,20.68
2022-10-16T15:46:04.511Z,20.53
2022-10-16T15:50:07.216Z,20.37
2022-10-16T15:54:09.777Z,20.23
2022-10-16T15:58:11.713Z,20.03
2022-10-16T16:02:13.702Z,19.84
2022-10-16T16:06:16.379Z,19.67
2022-10-16T16:10:18.712Z,19.48
2022-10-16T16:14:20.797Z,19.40
2022-10-16T16:18:23.608Z,19.30
2022-10-16T16:22:26.215Z,19.08
2022-10-16T16:26:35.011Z,18.91
2022-10-16T16:30:37.672Z,18.75
2022-10-16T16:34:39.776Z,18.62
2022-10-16T16:38:42.040Z,18.46
2022-10-16T16:42:44.115Z,18.22
2022-10-16T16:46:46.237Z,18.01
2022-10-16T16:50:48.256Z,17.81
2022-10-16T16:54:52.983Z,17.71
2022-10-16T16:58:57.908Z,17.62
2022-10-16T17:03:00.005Z,17.49
2022-10-16T17:07:02.093Z,17.50
2022-10-16T17:11:04.962Z,17.35
2022-10-16T17:15:07.627Z,17.26
2022-10-16T17:19:13.654Z,17.19
2022-10-16T17:23:17.650Z,16.96
2022-10-16T17:27:19.789Z,17.07
2022-10-16T17:31:25.512Z,16.99
2022-10-16T17:35:28.207Z,16.83
2022-10-16T17:39:30.467Z,16.65
2022-10-16T17:43:32.541Z,16.32
2022-10-16T17:47:34.595Z,16.23
2022-10-16T17:51:36.729Z,16.23
2022-10-16T17:55:43.215Z,16.23
2022-10-16T17:59:45.493Z,16.22
2022-10-16T18:03:59.383Z,16.00
2022-10-16T18:08:01.466Z,15.93
2022-10-16T18:12:03.764Z,16.00
2022-10-16T18:16:12.356Z,15.97
2022-10-16T18:20:14.468Z,15.98
2022-10-16T18:24:17.658Z,15.86
2022-10-16T18:28:20.342Z,15.90
2022-10-16T18:32:22.588Z,15.79
2022-10-16T18:36:29.860Z,15.74
2022-10-16T18:40:32.051Z,15.68
2022-10-16T18:44:35.147Z,15.50
2022-10-16T18:48:38.651Z,15.49
2022-10-16T18:52:48.570Z,15.51
2022-10-16T18:56:54.230Z,15.49
2022-10-16T19:00:56.346Z,15.41
2022-10-16T19:05:02.575Z,15.25
2022-10-16T19:09:08.435Z,15.19
2022-10-16T19:13:11.150Z,15.11
2022-10-16T19:17:13.237Z,15.12
2022-10-16T19:21:16.237Z,15.16
2022-10-16T19:25:19.795Z,15.16
2022-10-16T19:29:22.009Z,15.16
2022-10-16T19:33:24.192Z,15.16
2022-10-16T19:37:27.453Z,15.01
2022-10-16T19:41:30.474Z,15.04
2022-10-16T19:45:33.827Z,15.01
2022-10-16T19:49:35.831Z,14.96
2022-10-16T19:53:37.844Z,14.92
2022-10-16T19:57:39.861Z,14.95
2022-10-16T20:01:42.034Z,14.91
2022-10-16T20:05:55.393Z,14.91
2022-10-16T20:09:57.521Z,14.81
2022-10-16T20:14:00.306Z,14.70
2022-10-16T20:18:02.669Z,14.48
2022-10-16T20:22:04.769Z,14.34
2022-10-16T20:26:07.556Z,14.25
2022-10-16T20:30:10.197Z,14.17
2022-10-16T20:34:13.346Z,14.15
2022-10-16T20:38:16.923Z,14.24
2022-10-16T20:42:19.226Z,14.30
2022-10-16T20:46:26.943Z,14.28
2022-10-16T20:50:30.121Z,14.32
2022-10-16T20:54:32.203Z,14.29
2022-10-16T20:58:34.121Z,14.21
2022-10-16T21:02:36.509Z,14.18
2022-10-16T21:06:39.984Z,14.12
2022-10-16T21:10:42.068Z,14.09
2022-10-16T21:15:02.512Z,14.08
2022-10-16T21:19:06.502Z,14.03
2022-10-16T21:23:08.577Z,14.08
2022-10-16T21:27:10.575Z,14.07
2022-10-16T21:31:15.018Z,14.03
2022-10-16T21:35:16.874Z,14.02
2022-10-16T21:39:20.442Z,13.91
2022-10-16T21:43:22.631Z,13.87
2022-10-16T21:47:24.853Z,13.83
2022-10-16T21:51:33.970Z,13.74
2022-10-16T21:55:36.802Z,13.75
2022-10-16T21:59:38.829Z,13.73
2022-10-16T22:03:41.197Z,13.67
2022-10-16T22:07:43.161Z,13.69
2022-10-16T22:11:45.688Z,13.68
2022-10-16T22:15:53.451Z,13.71
2022-10-16T22:19:55.401Z,13.71
2022-10-16T22:23:58.582Z,13.69
2022-10-16T22:28:00.507Z,13.65
2022-10-16T22:32:02.481Z,13.66
2022-10-16T22:36:06.493Z,13.61
2022-10-16T22:40:09.353Z,13.58
2022-10-16T22:44:12.716Z,13.60
2022-10-16T22:48:14.613Z,13.47
2022-10-16T22:52:16.594Z,13.30
2022-10-16T22:56:20.885Z,13.35
2022-10-16T23:00:23.689Z,13.35
2022-10-16T23:04:25.664Z,13.33
2022-10-16T23:08:27.578Z,13.29
2022-10-16T23:12:29.855Z,13.20
2022-10-16T23:16:32.025Z,13.23
2022-10-16T23:20:34.025Z,13.30
2022-10-16T23:24:36.128Z,13.33
2022-10-16T23:28:38.957Z,13.23
2022-10-16T23:32:41.956Z,13.25
2022-10-16T23:36:44.907Z,13.27
2022-10-16T23:40:46.927Z,13.25
2022-10-16T23:44:49.488Z,13.23
2022-10-16T23:48:51.439Z,13.12
2022-10-16T23:52:53.389Z,13.14
2022-10-16T23:56:55.336Z,13.11
